sensor_id;sensor_type;location;lat;lon;timestamp;temperature;humidity
32215;DHT22;18708;53.124;23.190;2023-06-24T00:00:40;17.80;99.90
32215;DHT22;18708;53.124;23.190;2023-06-24T00:03:05;17.80;99.90
32215;DHT22;18708;53.124;23.190;2023-06-24T00:05:33;17.70;99.90
32215;DHT22;18708;53.124;23.190;2023-06-24T00:07:58;17.70;99.90
32215;DHT22;18708;53.124;23.190;2023-06-24T00:10:27;17.70;99.90
32215;DHT22;18708;53.124;23.190;2023-06-24T00:12:55;17.70;99.90
32215;DHT22;18708;53.124;23.190;2023-06-24T00:15:20;17.80;99.90
32215;DHT22;18708;53.124;23.190;2023-06-24T00:17:46;17.70;99.90
32215;DHT22;18708;53.124;23.190;2023-06-24T00:20:12;17.70;99.90
32215;DHT22;18708;53.124;23.190;2023-06-24T00:22:40;17.70;99.90
32215;DHT22;18708;53.124;23.190;2023-06-24T00:25:09;17.60;99.90
32215;DHT22;18708;53.124;23.190;2023-06-24T00:27:35;17.60;99.90
32215;DHT22;18708;53.124;23.190;2023-06-24T00:30:01;17.60;99.90
32215;DHT22;18708;53.124;23.190;2023-06-24T00:32:26;17.60;99.90
32215;DHT22;18708;53.124;23.190;2023-06-24T00:34:52;17.60;99.90
32215;DHT22;18708;53.124;23.190;2023-06-24T00:37:18;17.60;99.90
32215;DHT22;18708;53.124;23.190;2023-06-24T00:39:43;17.60;99.90
32215;DHT22;18708;53.124;23.190;2023-06-24T00:42:09;17.60;99.90
32215;DHT22;18708;53.124;23.190;2023-06-24T00:44:35;17.60;99.90
32215;DHT22;18708;53.124;23.190;2023-06-24T00:47:03;17.70;99.90
32215;DHT22;18708;53.124;23.190;2023-06-24T00:49:28;17.60;99.90
32215;DHT22;18708;53.124;23.190;2023-06-24T00:51:54;17.60;99.90
32215;DHT22;18708;53.124;23.190;2023-06-24T00:54:21;17.60;99.90
32215;DHT22;18708;53.124;23.190;2023-06-24T00:56:47;17.60;99.90
32215;DHT22;18708;53.124;23.190;2023-06-24T00:59:15;17.60;99.90
32215;DHT22;18708;53.124;23.190;2023-06-24T01:01:42;17.60;99.90
32215;DHT22;18708;53.124;23.190;2023-06-24T01:04:10;17.60;99.90
32215;DHT22;18708;53.124;23.190;2023-06-24T01:06:36;17.70;99.90
32215;DHT22;18708;53.124;23.190;2023-06-24T01:09:02;17.70;99.90
32215;DHT22;18708;53.124;23.190;2023-06-24T01:11:29;17.70;99.90
32215;DHT22;18708;53.124;23.190;2023-06-24T01:13:56;17.60;99.90
32215;DHT22;18708;53.124;23.190;2023-06-24T01:16:42;17.60;99.90
32215;DHT22;18708;53.124;23.190;2023-06-24T01:19:33;17.60;99.90
32215;DHT22;18708;53.124;23.190;2023-06-24T01:28:07;17.70;99.90
32215;DHT22;18708;53.124;23.190;2023-06-24T01:33:46;17.70;99.90
32215;DHT22;18708;53.124;23.190;2023-06-24T01:36:16;17.60;99.90
32215;DHT22;18708;53.124;23.190;2023-06-24T01:38:50;17.60;99.90
32215;DHT22;18708;53.124;23.190;2023-06-24T01:41:22;17.60;99.90
32215;DHT22;18708;53.124;23.190;2023-06-24T01:43:52;17.60;99.90
32215;DHT22;18708;53.124;23.190;2023-06-24T01:46:22;17.60;99.90
32215;DHT22;18708;53.124;23.190;2023-06-24T01:48:52;17.60;99.90
32215;DHT22;18708;53.124;23.190;2023-06-24T01:51:20;17.70;99.90
32215;DHT22;18708;53.124;23.190;2023-06-24T01:54:10;17.80;99.90
32215;DHT22;18708;53.124;23.190;2023-06-24T01:56:38;17.90;99.90
32215;DHT22;18708;53.124;23.190;2023-06-24T01:59:04;17.80;99.90
32215;DHT22;18708;53.124;23.190;2023-06-24T02:01:32;17.80;99.90
32215;DHT22;18708;53.124;23.190;2023-06-24T02:04:00;17.80;99.90
32215;DHT22;18708;53.124;23.190;2023-06-24T02:06:28;17.70;99.90
32215;DHT22;18708;53.124;23.190;2023-06-24T02:08:56;17.70;99.90
32215;DHT22;18708;53.124;23.190;2023-06-24T02:11:24;17.70;99.90
32215;DHT22;18708;53.124;23.190;2023-06-24T02:13:51;17.70;99.90
32215;DHT22;18708;53.124;23.190;2023-06-24T02:16:20;17.70;99.90
32215;DHT22;18708;53.124;23.190;2023-06-24T02:18:46;17.70;99.90
32215;DHT22;18708;53.124;23.190;2023-06-24T02:21:15;17.70;99.90
32215;DHT22;18708;53.124;23.190;2023-06-24T02:23:42;17.80;99.90
32215;DHT22;18708;53.124;23.190;2023-06-24T02:26:09;17.90;99.90
32215;DHT22;18708;53.124;23.190;2023-06-24T02:28:37;17.90;99.90
32215;DHT22;18708;53.124;23.190;2023-06-24T02:31:04;17.90;99.90
32215;DHT22;18708;53.124;23.190;2023-06-24T02:33:31;18.00;99.90
32215;DHT22;18708;53.124;23.190;2023-06-24T02:35:57;17.90;99.90
32215;DHT22;18708;53.124;23.190;2023-06-24T02:38:23;17.90;99.90
32215;DHT22;18708;53.124;23.190;2023-06-24T02:40:49;17.90;99.90
32215;DHT22;18708;53.124;23.190;2023-06-24T02:43:17;17.90;99.90
32215;DHT22;18708;53.124;23.190;2023-06-24T02:45:44;18.00;99.90
32215;DHT22;18708;53.124;23.190;2023-06-24T02:48:11;17.90;99.90
32215;DHT22;18708;53.124;23.190;2023-06-24T02:50:38;18.00;99.90
32215;DHT22;18708;53.124;23.190;2023-06-24T02:53:06;18.10;99.90
32215;DHT22;18708;53.124;23.190;2023-06-24T02:55:33;18.10;99.90
32215;DHT22;18708;53.124;23.190;2023-06-24T02:58:01;18.20;99.90
32215;DHT22;18708;53.124;23.190;2023-06-24T03:00:27;18.20;99.90
32215;DHT22;18708;53.124;23.190;2023-06-24T03:02:55;18.30;99.90
32215;DHT22;18708;53.124;23.190;2023-06-24T03:05:21;18.30;99.90
32215;DHT22;18708;53.124;23.190;2023-06-24T03:07:50;18.40;99.90
32215;DHT22;18708;53.124;23.190;2023-06-24T03:10:16;18.40;99.90
32215;DHT22;18708;53.124;23.190;2023-06-24T03:12:42;18.20;99.90
32215;DHT22;18708;53.124;23.190;2023-06-24T03:15:08;18.30;99.90
32215;DHT22;18708;53.124;23.190;2023-06-24T03:17:35;18.30;99.90
32215;DHT22;18708;53.124;23.190;2023-06-24T03:20:01;18.30;99.90
32215;DHT22;18708;53.124;23.190;2023-06-24T03:22:27;18.20;99.90
32215;DHT22;18708;53.124;23.190;2023-06-24T03:24:52;18.20;99.90
32215;DHT22;18708;53.124;23.190;2023-06-24T03:27:18;18.30;99.90
32215;DHT22;18708;53.124;23.190;2023-06-24T03:29:44;18.20;99.90
32215;DHT22;18708;53.124;23.190;2023-06-24T03:32:10;18.20;99.90
32215;DHT22;18708;53.124;23.190;2023-06-24T03:34:35;18.20;99.90
32215;DHT22;18708;53.124;23.190;2023-06-24T03:37:01;18.30;99.90
32215;DHT22;18708;53.124;23.190;2023-06-24T03:39:29;18.30;99.90
32215;DHT22;18708;53.124;23.190;2023-06-24T03:41:55;18.30;99.90
32215;DHT22;18708;53.124;23.190;2023-06-24T03:44:21;18.20;99.90
32215;DHT22;18708;53.124;23.190;2023-06-24T03:46:46;18.30;99.90
32215;DHT22;18708;53.124;23.190;2023-06-24T03:49:12;18.40;99.90
32215;DHT22;18708;53.124;23.190;2023-06-24T03:51:38;18.40;99.90
32215;DHT22;18708;53.124;23.190;2023-06-24T03:54:04;18.50;99.90
32215;DHT22;18708;53.124;23.190;2023-06-24T03:56:29;18.60;99.90
32215;DHT22;18708;53.124;23.190;2023-06-24T03:58:55;18.70;99.90
32215;DHT22;18708;53.124;23.190;2023-06-24T04:01:20;18.70;99.90
32215;DHT22;18708;53.124;23.190;2023-06-24T04:03:47;18.80;99.90
32215;DHT22;18708;53.124;23.190;2023-06-24T04:06:12;18.80;99.90
32215;DHT22;18708;53.124;23.190;2023-06-24T04:08:38;18.90;99.90
32215;DHT22;18708;53.124;23.190;2023-06-24T04:11:08;18.80;99.90
32215;DHT22;18708;53.124;23.190;2023-06-24T04:13:34;18.80;99.90
32215;DHT22;18708;53.124;23.190;2023-06-24T04:16:00;18.70;99.90
32215;DHT22;18708;53.124;23.190;2023-06-24T04:18:26;18.70;99.90
32215;DHT22;18708;53.124;23.190;2023-06-24T04:20:51;18.80;99.90
32215;DHT22;18708;53.124;23.190;2023-06-24T04:23:17;18.80;99.90
32215;DHT22;18708;53.124;23.190;2023-06-24T04:25:43;18.90;99.90
32215;DHT22;18708;53.124;23.190;2023-06-24T04:28:09;18.90;99.90
32215;DHT22;18708;53.124;23.190;2023-06-24T04:30:34;18.90;99.90
32215;DHT22;18708;53.124;23.190;2023-06-24T04:33:06;18.90;99.90
32215;DHT22;18708;53.124;23.190;2023-06-24T04:35:32;18.90;99.90
32215;DHT22;18708;53.124;23.190;2023-06-24T04:37:58;18.90;99.90
32215;DHT22;18708;53.124;23.190;2023-06-24T04:40:23;19.00;99.90
32215;DHT22;18708;53.124;23.190;2023-06-24T04:42:49;18.90;99.90
32215;DHT22;18708;53.124;23.190;2023-06-24T04:45:15;19.00;99.90
32215;DHT22;18708;53.124;23.190;2023-06-24T04:47:41;19.20;99.90
32215;DHT22;18708;53.124;23.190;2023-06-24T04:50:07;19.10;99.90
32215;DHT22;18708;53.124;23.190;2023-06-24T04:52:35;19.20;99.90
32215;DHT22;18708;53.124;23.190;2023-06-24T04:55:01;19.30;99.90
32215;DHT22;18708;53.124;23.190;2023-06-24T04:57:29;19.40;99.90
32215;DHT22;18708;53.124;23.190;2023-06-24T04:59:55;19.40;99.90
32215;DHT22;18708;53.124;23.190;2023-06-24T05:02:21;19.50;99.90
32215;DHT22;18708;53.124;23.190;2023-06-24T05:04:46;19.60;99.90
32215;DHT22;18708;53.124;23.190;2023-06-24T05:07:12;19.70;99.90
32215;DHT22;18708;53.124;23.190;2023-06-24T05:09:38;19.70;99.90
32215;DHT22;18708;53.124;23.190;2023-06-24T05:12:04;19.80;99.90
32215;DHT22;18708;53.124;23.190;2023-06-24T05:14:30;19.90;99.90
32215;DHT22;18708;53.124;23.190;2023-06-24T05:16:56;20.00;99.90
32215;DHT22;18708;53.124;23.190;2023-06-24T05:19:21;20.10;99.90
32215;DHT22;18708;53.124;23.190;2023-06-24T05:21:47;20.10;99.90
32215;DHT22;18708;53.124;23.190;2023-06-24T05:24:13;20.10;99.90
32215;DHT22;18708;53.124;23.190;2023-06-24T05:26:38;20.30;99.90
32215;DHT22;18708;53.124;23.190;2023-06-24T05:29:04;20.10;99.90
32215;DHT22;18708;53.124;23.190;2023-06-24T05:31:30;20.00;99.90
32215;DHT22;18708;53.124;23.190;2023-06-24T05:33:55;20.10;99.90
32215;DHT22;18708;53.124;23.190;2023-06-24T05:36:21;20.20;99.90
32215;DHT22;18708;53.124;23.190;2023-06-24T05:38:47;20.30;99.90
32215;DHT22;18708;53.124;23.190;2023-06-24T05:41:14;20.50;99.90
32215;DHT22;18708;53.124;23.190;2023-06-24T05:43:42;20.60;99.90
32215;DHT22;18708;53.124;23.190;2023-06-24T05:46:08;20.80;99.90
32215;DHT22;18708;53.124;23.190;2023-06-24T05:48:34;20.90;99.90
32215;DHT22;18708;53.124;23.190;2023-06-24T05:51:00;21.00;99.90
32215;DHT22;18708;53.124;23.190;2023-06-24T05:53:25;21.10;99.90
32215;DHT22;18708;53.124;23.190;2023-06-24T05:55:51;21.10;99.90
32215;DHT22;18708;53.124;23.190;2023-06-24T05:58:17;21.30;99.90
32215;DHT22;18708;53.124;23.190;2023-06-24T06:00:42;21.30;99.90
32215;DHT22;18708;53.124;23.190;2023-06-24T06:03:08;21.40;99.90
32215;DHT22;18708;53.124;23.190;2023-06-24T06:05:34;21.50;99.90
32215;DHT22;18708;53.124;23.190;2023-06-24T06:08:00;21.70;99.90
32215;DHT22;18708;53.124;23.190;2023-06-24T06:10:26;21.80;99.90
32215;DHT22;18708;53.124;23.190;2023-06-24T06:12:51;21.90;99.90
32215;DHT22;18708;53.124;23.190;2023-06-24T06:15:18;22.00;99.90
32215;DHT22;18708;53.124;23.190;2023-06-24T06:17:45;22.00;99.90
32215;DHT22;18708;53.124;23.190;2023-06-24T06:20:11;22.00;99.90
32215;DHT22;18708;53.124;23.190;2023-06-24T06:22:37;22.00;99.90
32215;DHT22;18708;53.124;23.190;2023-06-24T06:25:06;22.10;99.90
32215;DHT22;18708;53.124;23.190;2023-06-24T06:27:33;22.30;99.90
32215;DHT22;18708;53.124;23.190;2023-06-24T06:29:59;22.50;99.90
32215;DHT22;18708;53.124;23.190;2023-06-24T06:32:24;22.50;99.90
32215;DHT22;18708;53.124;23.190;2023-06-24T06:34:50;22.60;99.90
32215;DHT22;18708;53.124;23.190;2023-06-24T06:37:16;22.50;99.90
32215;DHT22;18708;53.124;23.190;2023-06-24T06:39:41;22.70;99.90
32215;DHT22;18708;53.124;23.190;2023-06-24T06:42:07;23.20;99.90
32215;DHT22;18708;53.124;23.190;2023-06-24T06:44:33;23.70;99.90
32215;DHT22;18708;53.124;23.190;2023-06-24T06:46:58;24.30;99.90
32215;DHT22;18708;53.124;23.190;2023-06-24T06:49:24;24.80;99.90
32215;DHT22;18708;53.124;23.190;2023-06-24T06:51:53;25.00;99.90
32215;DHT22;18708;53.124;23.190;2023-06-24T06:54:19;24.90;99.90
32215;DHT22;18708;53.124;23.190;2023-06-24T06:56:45;24.60;99.90
32215;DHT22;18708;53.124;23.190;2023-06-24T06:59:10;24.50;99.90
32215;DHT22;18708;53.124;23.190;2023-06-24T07:01:36;24.50;99.90
32215;DHT22;18708;53.124;23.190;2023-06-24T07:04:02;24.40;99.90
32215;DHT22;18708;53.124;23.190;2023-06-24T07:06:28;24.80;99.90
32215;DHT22;18708;53.124;23.190;2023-06-24T07:08:53;24.90;99.90
32215;DHT22;18708;53.124;23.190;2023-06-24T07:11:19;25.10;99.90
32215;DHT22;18708;53.124;23.190;2023-06-24T07:13:45;24.70;99.90
32215;DHT22;18708;53.124;23.190;2023-06-24T07:16:11;25.10;99.90
32215;DHT22;18708;53.124;23.190;2023-06-24T07:18:37;25.10;99.90
32215;DHT22;18708;53.124;23.190;2023-06-24T07:21:03;25.20;98.60
32215;DHT22;18708;53.124;23.190;2023-06-24T07:23:28;25.30;99.60
32215;DHT22;18708;53.124;23.190;2023-06-24T07:25:54;25.50;95.20
32215;DHT22;18708;53.124;23.190;2023-06-24T07:28:20;25.20;96.80
32215;DHT22;18708;53.124;23.190;2023-06-24T07:30:46;25.20;93.20
32215;DHT22;18708;53.124;23.190;2023-06-24T07:33:11;25.20;95.70
32215;DHT22;18708;53.124;23.190;2023-06-24T07:35:37;25.60;94.60
32215;DHT22;18708;53.124;23.190;2023-06-24T07:38:03;26.00;96.80
32215;DHT22;18708;53.124;23.190;2023-06-24T07:40:28;26.20;91.80
32215;DHT22;18708;53.124;23.190;2023-06-24T07:42:54;25.60;92.30
32215;DHT22;18708;53.124;23.190;2023-06-24T07:45:20;25.20;92.50
32215;DHT22;18708;53.124;23.190;2023-06-24T07:47:45;25.50;94.50
32215;DHT22;18708;53.124;23.190;2023-06-24T07:50:11;25.60;96.20
32215;DHT22;18708;53.124;23.190;2023-06-24T07:52:38;25.50;91.90
32215;DHT22;18708;53.124;23.190;2023-06-24T07:55:04;25.30;92.50
32215;DHT22;18708;53.124;23.190;2023-06-24T07:57:30;25.70;93.00
32215;DHT22;18708;53.124;23.190;2023-06-24T07:59:55;25.80;92.00
32215;DHT22;18708;53.124;23.190;2023-06-24T08:02:21;25.90;93.60
32215;DHT22;18708;53.124;23.190;2023-06-24T08:04:49;26.20;93.30
32215;DHT22;18708;53.124;23.190;2023-06-24T08:07:15;26.40;91.20
32215;DHT22;18708;53.124;23.190;2023-06-24T08:09:41;26.60;93.60
32215;DHT22;18708;53.124;23.190;2023-06-24T08:12:06;26.90;92.70
32215;DHT22;18708;53.124;23.190;2023-06-24T08:14:32;27.10;90.40
32215;DHT22;18708;53.124;23.190;2023-06-24T08:16:58;26.50;84.70
32215;DHT22;18708;53.124;23.190;2023-06-24T08:19:24;26.50;86.20
32215;DHT22;18708;53.124;23.190;2023-06-24T08:21:49;26.30;82.90
32215;DHT22;18708;53.124;23.190;2023-06-24T08:24:15;26.40;83.80
32215;DHT22;18708;53.124;23.190;2023-06-24T08:26:41;26.50;87.80
32215;DHT22;18708;53.124;23.190;2023-06-24T08:29:06;26.40;82.10
32215;DHT22;18708;53.124;23.190;2023-06-24T08:31:33;26.80;90.10
32215;DHT22;18708;53.124;23.190;2023-06-24T08:34:01;26.80;83.70
32215;DHT22;18708;53.124;23.190;2023-06-24T08:36:33;27.10;81.60
32215;DHT22;18708;53.124;23.190;2023-06-24T08:38:59;26.80;83.80
32215;DHT22;18708;53.124;23.190;2023-06-24T08:41:25;26.80;76.30
32215;DHT22;18708;53.124;23.190;2023-06-24T08:43:51;26.90;79.80
32215;DHT22;18708;53.124;23.190;2023-06-24T08:46:18;27.40;78.90
32215;DHT22;18708;53.124;23.190;2023-06-24T08:48:45;27.00;72.20
32215;DHT22;18708;53.124;23.190;2023-06-24T08:51:13;27.20;78.40
32215;DHT22;18708;53.124;23.190;2023-06-24T08:53:43;27.50;88.00
32215;DHT22;18708;53.124;23.190;2023-06-24T08:56:12;27.70;80.00
32215;DHT22;18708;53.124;23.190;2023-06-24T08:58:40;28.10;70.00
32215;DHT22;18708;53.124;23.190;2023-06-24T09:01:06;28.20;70.00
32215;DHT22;18708;53.124;23.190;2023-06-24T09:03:32;27.80;78.10
32215;DHT22;18708;53.124;23.190;2023-06-24T09:05:58;28.30;75.00
32215;DHT22;18708;53.124;23.190;2023-06-24T09:08:23;28.20;76.70
32215;DHT22;18708;53.124;23.190;2023-06-24T09:10:53;27.50;75.70
32215;DHT22;18708;53.124;23.190;2023-06-24T09:13:33;27.20;72.20
32215;DHT22;18708;53.124;23.190;2023-06-24T09:15:59;27.10;74.30
32215;DHT22;18708;53.124;23.190;2023-06-24T09:18:31;27.40;80.60
32215;DHT22;18708;53.124;23.190;2023-06-24T09:20:57;27.00;74.10
32215;DHT22;18708;53.124;23.190;2023-06-24T09:23:25;26.90;72.70
32215;DHT22;18708;53.124;23.190;2023-06-24T09:25:58;27.20;81.40
32215;DHT22;18708;53.124;23.190;2023-06-24T09:28:27;27.60;76.20
32215;DHT22;18708;53.124;23.190;2023-06-24T09:31:06;27.70;81.90
32215;DHT22;18708;53.124;23.190;2023-06-24T09:33:32;27.50;69.20
32215;DHT22;18708;53.124;23.190;2023-06-24T09:35:58;27.60;78.00
32215;DHT22;18708;53.124;23.190;2023-06-24T09:38:36;27.60;71.60
32215;DHT22;18708;53.124;23.190;2023-06-24T09:41:06;27.80;73.80
32215;DHT22;18708;53.124;23.190;2023-06-24T09:43:35;27.30;71.00
32215;DHT22;18708;53.124;23.190;2023-06-24T09:46:02;27.10;77.70
32215;DHT22;18708;53.124;23.190;2023-06-24T09:48:28;27.20;78.70
32215;DHT22;18708;53.124;23.190;2023-06-24T09:51:00;27.70;78.60
32215;DHT22;18708;53.124;23.190;2023-06-24T09:53:32;27.80;78.30
32215;DHT22;18708;53.124;23.190;2023-06-24T09:56:00;28.10;79.20
32215;DHT22;18708;53.124;23.190;2023-06-24T09:58:31;28.20;76.30
32215;DHT22;18708;53.124;23.190;2023-06-24T10:01:02;28.30;75.20
32215;DHT22;18708;53.124;23.190;2023-06-24T10:03:29;28.10;74.10
32215;DHT22;18708;53.124;23.190;2023-06-24T10:05:57;28.20;70.40
32215;DHT22;18708;53.124;23.190;2023-06-24T10:08:23;28.00;69.40
32215;DHT22;18708;53.124;23.190;2023-06-24T10:10:49;28.00;75.70
32215;DHT22;18708;53.124;23.190;2023-06-24T10:13:15;27.50;69.20
32215;DHT22;18708;53.124;23.190;2023-06-24T10:15:41;27.40;69.80
32215;DHT22;18708;53.124;23.190;2023-06-24T10:18:32;27.30;71.80
32215;DHT22;18708;53.124;23.190;2023-06-24T10:20:58;27.50;68.10
32215;DHT22;18708;53.124;23.190;2023-06-24T10:23:30;27.10;67.70
32215;DHT22;18708;53.124;23.190;2023-06-24T10:25:56;26.80;68.80
32215;DHT22;18708;53.124;23.190;2023-06-24T10:28:22;26.40;71.80
32215;DHT22;18708;53.124;23.190;2023-06-24T10:30:56;26.40;71.40
32215;DHT22;18708;53.124;23.190;2023-06-24T10:33:24;26.20;74.70
32215;DHT22;18708;53.124;23.190;2023-06-24T10:35:50;25.90;70.90
32215;DHT22;18708;53.124;23.190;2023-06-24T10:38:17;25.50;71.60
32215;DHT22;18708;53.124;23.190;2023-06-24T10:40:43;25.40;74.90
32215;DHT22;18708;53.124;23.190;2023-06-24T10:45:51;25.90;74.50
32215;DHT22;18708;53.124;23.190;2023-06-24T10:48:17;26.20;78.10
32215;DHT22;18708;53.124;23.190;2023-06-24T10:50:45;26.20;69.90
32215;DHT22;18708;53.124;23.190;2023-06-24T10:53:12;25.80;76.70
32215;DHT22;18708;53.124;23.190;2023-06-24T10:55:38;25.60;69.70
32215;DHT22;18708;53.124;23.190;2023-06-24T10:58:11;25.50;72.70
32215;DHT22;18708;53.124;23.190;2023-06-24T11:00:38;25.50;71.10
32215;DHT22;18708;53.124;23.190;2023-06-24T11:03:10;25.50;78.30
32215;DHT22;18708;53.124;23.190;2023-06-24T11:05:44;25.50;75.20
32215;DHT22;18708;53.124;23.190;2023-06-24T11:08:10;25.50;74.30
32215;DHT22;18708;53.124;23.190;2023-06-24T11:10:46;25.30;72.50
32215;DHT22;18708;53.124;23.190;2023-06-24T11:13:12;25.20;73.20
32215;DHT22;18708;53.124;23.190;2023-06-24T11:15:39;25.20;76.60
32215;DHT22;18708;53.124;23.190;2023-06-24T11:18:08;25.40;72.80
32215;DHT22;18708;53.124;23.190;2023-06-24T11:20:36;25.50;76.20
32215;DHT22;18708;53.124;23.190;2023-06-24T11:23:02;25.60;74.50
32215;DHT22;18708;53.124;23.190;2023-06-24T11:25:27;25.60;66.90
32215;DHT22;18708;53.124;23.190;2023-06-24T11:27:53;25.70;67.10
32215;DHT22;18708;53.124;23.190;2023-06-24T11:30:19;25.60;69.70
32215;DHT22;18708;53.124;23.190;2023-06-24T11:32:45;25.50;69.70
32215;DHT22;18708;53.124;23.190;2023-06-24T11:35:12;25.20;75.30
32215;DHT22;18708;53.124;23.190;2023-06-24T11:37:44;25.10;74.90
32215;DHT22;18708;53.124;23.190;2023-06-24T11:40:11;25.00;73.60
32215;DHT22;18708;53.124;23.190;2023-06-24T11:42:38;24.90;74.30
32215;DHT22;18708;53.124;23.190;2023-06-24T11:45:09;24.80;77.00
32215;DHT22;18708;53.124;23.190;2023-06-24T11:47:37;25.00;79.40
32215;DHT22;18708;53.124;23.190;2023-06-24T11:50:04;25.10;77.00
32215;DHT22;18708;53.124;23.190;2023-06-24T11:52:44;24.90;73.90
32215;DHT22;18708;53.124;23.190;2023-06-24T11:55:17;25.10;79.90
32215;DHT22;18708;53.124;23.190;2023-06-24T11:57:51;25.30;81.00
32215;DHT22;18708;53.124;23.190;2023-06-24T12:00:31;25.40;78.60
32215;DHT22;18708;53.124;23.190;2023-06-24T12:03:00;25.40;78.80
32215;DHT22;18708;53.124;23.190;2023-06-24T12:05:28;25.30;80.10
32215;DHT22;18708;53.124;23.190;2023-06-24T12:07:58;25.30;79.20
32215;DHT22;18708;53.124;23.190;2023-06-24T12:10:25;25.40;80.90
32215;DHT22;18708;53.124;23.190;2023-06-24T12:12:51;25.50;79.40
32215;DHT22;18708;53.124;23.190;2023-06-24T12:15:16;25.40;79.80
32215;DHT22;18708;53.124;23.190;2023-06-24T12:17:42;25.10;79.00
32215;DHT22;18708;53.124;23.190;2023-06-24T12:20:08;24.90;79.60
32215;DHT22;18708;53.124;23.190;2023-06-24T12:22:36;24.70;78.20
32215;DHT22;18708;53.124;23.190;2023-06-24T12:25:01;24.60;79.70
32215;DHT22;18708;53.124;23.190;2023-06-24T12:27:27;24.60;81.00
32215;DHT22;18708;53.124;23.190;2023-06-24T12:29:53;24.70;81.10
32215;DHT22;18708;53.124;23.190;2023-06-24T12:32:19;24.90;81.70
32215;DHT22;18708;53.124;23.190;2023-06-24T12:34:44;24.90;81.30
32215;DHT22;18708;53.124;23.190;2023-06-24T12:37:10;24.90;82.90
32215;DHT22;18708;53.124;23.190;2023-06-24T12:39:36;24.90;82.00
32215;DHT22;18708;53.124;23.190;2023-06-24T12:42:01;25.00;81.30
32215;DHT22;18708;53.124;23.190;2023-06-24T12:44:27;25.00;81.60
32215;DHT22;18708;53.124;23.190;2023-06-24T12:46:53;25.00;80.60
32215;DHT22;18708;53.124;23.190;2023-06-24T12:49:18;24.70;81.50
32215;DHT22;18708;53.124;23.190;2023-06-24T12:51:44;24.70;83.90
32215;DHT22;18708;53.124;23.190;2023-06-24T12:54:11;24.70;87.00
32215;DHT22;18708;53.124;23.190;2023-06-24T12:56:36;24.70;82.60
32215;DHT22;18708;53.124;23.190;2023-06-24T12:59:02;24.60;84.10
32215;DHT22;18708;53.124;23.190;2023-06-24T13:01:28;24.70;86.40
32215;DHT22;18708;53.124;23.190;2023-06-24T13:03:54;24.80;84.20
32215;DHT22;18708;53.124;23.190;2023-06-24T13:06:19;24.80;83.20
32215;DHT22;18708;53.124;23.190;2023-06-24T13:08:45;24.60;83.60
32215;DHT22;18708;53.124;23.190;2023-06-24T13:11:11;24.50;83.20
32215;DHT22;18708;53.124;23.190;2023-06-24T13:13:36;24.40;83.60
32215;DHT22;18708;53.124;23.190;2023-06-24T13:16:02;24.30;84.10
32215;DHT22;18708;53.124;23.190;2023-06-24T13:18:28;24.20;85.00
32215;DHT22;18708;53.124;23.190;2023-06-24T13:20:53;24.00;85.60
32215;DHT22;18708;53.124;23.190;2023-06-24T13:23:19;24.00;85.60
32215;DHT22;18708;53.124;23.190;2023-06-24T13:25:45;24.00;85.70
32215;DHT22;18708;53.124;23.190;2023-06-24T13:28:10;24.00;85.00
32215;DHT22;18708;53.124;23.190;2023-06-24T13:30:36;24.00;85.30
32215;DHT22;18708;53.124;23.190;2023-06-24T13:33:02;24.00;83.10
32215;DHT22;18708;53.124;23.190;2023-06-24T13:35:28;24.00;86.10
32215;DHT22;18708;53.124;23.190;2023-06-24T13:37:53;24.20;84.60
32215;DHT22;18708;53.124;23.190;2023-06-24T13:40:19;24.30;82.30
32215;DHT22;18708;53.124;23.190;2023-06-24T13:42:45;24.20;80.90
32215;DHT22;18708;53.124;23.190;2023-06-24T13:45:11;24.10;81.60
32215;DHT22;18708;53.124;23.190;2023-06-24T13:47:36;24.10;81.20
32215;DHT22;18708;53.124;23.190;2023-06-24T13:50:03;24.00;81.20
32215;DHT22;18708;53.124;23.190;2023-06-24T13:52:29;23.90;81.90
32215;DHT22;18708;53.124;23.190;2023-06-24T13:54:55;23.90;83.70
32215;DHT22;18708;53.124;23.190;2023-06-24T13:57:21;23.90;84.20
32215;DHT22;18708;53.124;23.190;2023-06-24T13:59:46;23.90;83.40
32215;DHT22;18708;53.124;23.190;2023-06-24T14:02:12;23.70;83.60
32215;DHT22;18708;53.124;23.190;2023-06-24T14:04:38;23.60;84.60
32215;DHT22;18708;53.124;23.190;2023-06-24T14:07:07;23.60;83.90
32215;DHT22;18708;53.124;23.190;2023-06-24T14:09:33;23.60;84.90
32215;DHT22;18708;53.124;23.190;2023-06-24T14:11:59;23.60;86.00
32215;DHT22;18708;53.124;23.190;2023-06-24T14:14:25;23.70;84.40
32215;DHT22;18708;53.124;23.190;2023-06-24T14:16:51;23.70;85.20
32215;DHT22;18708;53.124;23.190;2023-06-24T14:19:17;23.70;84.20
32215;DHT22;18708;53.124;23.190;2023-06-24T14:21:42;23.60;86.90
32215;DHT22;18708;53.124;23.190;2023-06-24T14:24:08;23.60;87.40
32215;DHT22;18708;53.124;23.190;2023-06-24T14:26:36;23.60;86.40
32215;DHT22;18708;53.124;23.190;2023-06-24T14:29:02;23.70;84.70
32215;DHT22;18708;53.124;23.190;2023-06-24T14:31:28;23.70;84.90
32215;DHT22;18708;53.124;23.190;2023-06-24T14:33:54;23.70;85.00
32215;DHT22;18708;53.124;23.190;2023-06-24T14:36:20;23.70;84.60
32215;DHT22;18708;53.124;23.190;2023-06-24T14:38:45;23.70;85.30
32215;DHT22;18708;53.124;23.190;2023-06-24T14:41:11;23.70;84.70
32215;DHT22;18708;53.124;23.190;2023-06-24T14:43:37;23.70;84.60
32215;DHT22;18708;53.124;23.190;2023-06-24T14:46:03;23.60;85.10
32215;DHT22;18708;53.124;23.190;2023-06-24T14:48:28;23.60;85.20
32215;DHT22;18708;53.124;23.190;2023-06-24T14:50:54;23.60;85.50
32215;DHT22;18708;53.124;23.190;2023-06-24T14:53:20;23.60;88.10
32215;DHT22;18708;53.124;23.190;2023-06-24T14:55:46;23.60;89.50
32215;DHT22;18708;53.124;23.190;2023-06-24T14:58:12;23.70;85.40
32215;DHT22;18708;53.124;23.190;2023-06-24T15:00:37;23.50;85.40
32215;DHT22;18708;53.124;23.190;2023-06-24T15:03:03;23.40;88.10
32215;DHT22;18708;53.124;23.190;2023-06-24T15:05:29;23.40;86.70
32215;DHT22;18708;53.124;23.190;2023-06-24T15:07:54;23.40;86.90
32215;DHT22;18708;53.124;23.190;2023-06-24T15:10:20;23.40;86.60
32215;DHT22;18708;53.124;23.190;2023-06-24T15:12:46;23.20;89.10
32215;DHT22;18708;53.124;23.190;2023-06-24T15:15:11;23.20;88.50
32215;DHT22;18708;53.124;23.190;2023-06-24T15:17:37;23.20;86.30
32215;DHT22;18708;53.124;23.190;2023-06-24T15:20:08;23.10;88.50
32215;DHT22;18708;53.124;23.190;2023-06-24T15:22:34;23.10;87.80
32215;DHT22;18708;53.124;23.190;2023-06-24T15:25:00;23.10;88.90